sensor_id;sensor_type;location;lat;lon;timestamp;temperature;humidity
15900;DHT22;8048;50.644;6.184;2022-12-07T00:01:33;2.60;99.90
15900;DHT22;8048;50.644;6.184;2022-12-07T00:04:01;2.60;99.90
15900;DHT22;8048;50.644;6.184;2022-12-07T00:06:37;2.60;99.90
15900;DHT22;8048;50.644;6.184;2022-12-07T00:09:05;2.60;99.90
15900;DHT22;8048;50.644;6.184;2022-12-07T00:11:31;2.60;99.90
15900;DHT22;8048;50.644;6.184;2022-12-07T00:14:00;2.60;99.90
15900;DHT22;8048;50.644;6.184;2022-12-07T00:16:28;2.50;99.90
15900;DHT22;8048;50.644;6.184;2022-12-07T00:18:54;2.60;99.90
15900;DHT22;8048;50.644;6.184;2022-12-07T00:21:22;2.50;99.90
15900;DHT22;8048;50.644;6.184;2022-12-07T00:23:49;2.50;99.90
15900;DHT22;8048;50.644;6.184;2022-12-07T00:28:57;2.50;99.90
15900;DHT22;8048;50.644;6.184;2022-12-07T00:31:27;2.60;99.90
15900;DHT22;8048;50.644;6.184;2022-12-07T00:33:53;2.50;99.90
15900;DHT22;8048;50.644;6.184;2022-12-07T00:36:21;2.50;99.90
15900;DHT22;8048;50.644;6.184;2022-12-07T00:38:47;2.50;99.90
15900;DHT22;8048;50.644;6.184;2022-12-07T00:41:14;2.50;99.90
15900;DHT22;8048;50.644;6.184;2022-12-07T00:43:42;2.50;99.90
15900;DHT22;8048;50.644;6.184;2022-12-07T00:46:09;2.60;99.90
15900;DHT22;8048;50.644;6.184;2022-12-07T00:51:03;2.50;99.90
15900;DHT22;8048;50.644;6.184;2022-12-07T00:53:30;2.50;99.90
15900;DHT22;8048;50.644;6.184;2022-12-07T00:55:56;2.50;99.90
15900;DHT22;8048;50.644;6.184;2022-12-07T00:58:22;2.50;99.90
15900;DHT22;8048;50.644;6.184;2022-12-07T01:00:48;2.60;99.90
15900;DHT22;8048;50.644;6.184;2022-12-07T01:03:15;2.60;99.90
15900;DHT22;8048;50.644;6.184;2022-12-07T01:05:52;2.50;99.90
15900;DHT22;8048;50.644;6.184;2022-12-07T01:08:18;2.50;99.90
15900;DHT22;8048;50.644;6.184;2022-12-07T01:10:45;2.50;99.90
15900;DHT22;8048;50.644;6.184;2022-12-07T01:13:10;2.50;99.90
15900;DHT22;8048;50.644;6.184;2022-12-07T01:15:40;2.50;99.90
15900;DHT22;8048;50.644;6.184;2022-12-07T01:18:05;2.50;99.90
15900;DHT22;8048;50.644;6.184;2022-12-07T01:20:31;2.50;99.90
15900;DHT22;8048;50.644;6.184;2022-12-07T01:22:56;2.50;99.90
15900;DHT22;8048;50.644;6.184;2022-12-07T01:25:22;2.50;99.90
15900;DHT22;8048;50.644;6.184;2022-12-07T01:27:47;2.60;99.90
15900;DHT22;8048;50.644;6.184;2022-12-07T01:30:13;2.60;99.90
15900;DHT22;8048;50.644;6.184;2022-12-07T01:32:39;2.60;99.90
15900;DHT22;8048;50.644;6.184;2022-12-07T01:35:05;2.60;99.90
15900;DHT22;8048;50.644;6.184;2022-12-07T01:37:37;2.60;99.90
15900;DHT22;8048;50.644;6.184;2022-12-07T01:40:04;2.60;99.90
15900;DHT22;8048;50.644;6.184;2022-12-07T01:42:30;2.60;99.90
15900;DHT22;8048;50.644;6.184;2022-12-07T01:47:48;2.60;99.90
15900;DHT22;8048;50.644;6.184;2022-12-07T01:50:14;2.60;99.90
15900;DHT22;8048;50.644;6.184;2022-12-07T01:52:40;2.60;99.90
15900;DHT22;8048;50.644;6.184;2022-12-07T01:55:12;2.60;99.90
15900;DHT22;8048;50.644;6.184;2022-12-07T01:57:47;2.60;99.90
15900;DHT22;8048;50.644;6.184;2022-12-07T02:00:14;2.60;99.90
15900;DHT22;8048;50.644;6.184;2022-12-07T02:02:55;2.60;99.90
15900;DHT22;8048;50.644;6.184;2022-12-07T02:05:23;2.60;99.90
15900;DHT22;8048;50.644;6.184;2022-12-07T02:07:51;2.60;99.90
15900;DHT22;8048;50.644;6.184;2022-12-07T02:10:20;2.60;99.90
15900;DHT22;8048;50.644;6.184;2022-12-07T02:12:50;2.60;99.90
15900;DHT22;8048;50.644;6.184;2022-12-07T02:15:17;2.60;99.90
15900;DHT22;8048;50.644;6.184;2022-12-07T02:18:07;2.60;99.90
15900;DHT22;8048;50.644;6.184;2022-12-07T02:21:27;2.60;99.90
15900;DHT22;8048;50.644;6.184;2022-12-07T02:29:45;2.70;99.90
15900;DHT22;8048;50.644;6.184;2022-12-07T02:32:41;2.60;99.90
15900;DHT22;8048;50.644;6.184;2022-12-07T02:35:13;2.70;99.90
15900;DHT22;8048;50.644;6.184;2022-12-07T02:38:13;2.80;99.90
15900;DHT22;8048;50.644;6.184;2022-12-07T02:43:34;2.60;99.90
15900;DHT22;8048;50.644;6.184;2022-12-07T02:46:14;2.70;99.90
15900;DHT22;8048;50.644;6.184;2022-12-07T02:48:41;2.60;99.90
15900;DHT22;8048;50.644;6.184;2022-12-07T02:51:08;2.60;99.90
15900;DHT22;8048;50.644;6.184;2022-12-07T02:53:38;2.70;99.90
15900;DHT22;8048;50.644;6.184;2022-12-07T03:04:28;2.60;99.90
15900;DHT22;8048;50.644;6.184;2022-12-07T03:07:08;2.60;99.90
15900;DHT22;8048;50.644;6.184;2022-12-07T03:09:43;2.60;99.90
15900;DHT22;8048;50.644;6.184;2022-12-07T03:12:19;2.60;99.90
15900;DHT22;8048;50.644;6.184;2022-12-07T03:14:55;2.60;99.90
15900;DHT22;8048;50.644;6.184;2022-12-07T03:17:27;2.60;99.90
15900;DHT22;8048;50.644;6.184;2022-12-07T03:19:58;2.60;99.90
15900;DHT22;8048;50.644;6.184;2022-12-07T03:22:24;2.60;99.90
15900;DHT22;8048;50.644;6.184;2022-12-07T03:25:00;2.60;99.90
15900;DHT22;8048;50.644;6.184;2022-12-07T03:27:37;2.60;99.90
15900;DHT22;8048;50.644;6.184;2022-12-07T03:37:47;2.60;99.90
15900;DHT22;8048;50.644;6.184;2022-12-07T03:40:24;2.70;99.90
15900;DHT22;8048;50.644;6.184;2022-12-07T03:42:51;2.80;99.90
15900;DHT22;8048;50.644;6.184;2022-12-07T03:45:18;2.80;99.90
15900;DHT22;8048;50.644;6.184;2022-12-07T03:48:15;2.70;99.90
15900;DHT22;8048;50.644;6.184;2022-12-07T03:50:59;2.70;99.90
15900;DHT22;8048;50.644;6.184;2022-12-07T03:53:34;2.70;99.90
15900;DHT22;8048;50.644;6.184;2022-12-07T03:56:01;2.70;99.90
15900;DHT22;8048;50.644;6.184;2022-12-07T03:58:27;2.70;99.90
15900;DHT22;8048;50.644;6.184;2022-12-07T04:00:53;2.70;99.90
15900;DHT22;8048;50.644;6.184;2022-12-07T04:03:19;2.70;99.90
15900;DHT22;8048;50.644;6.184;2022-12-07T04:05:44;2.70;99.90
15900;DHT22;8048;50.644;6.184;2022-12-07T04:08:10;2.70;99.90
15900;DHT22;8048;50.644;6.184;2022-12-07T04:10:36;2.80;99.90
15900;DHT22;8048;50.644;6.184;2022-12-07T04:13:01;2.70;99.90
15900;DHT22;8048;50.644;6.184;2022-12-07T04:15:27;2.80;99.90
15900;DHT22;8048;50.644;6.184;2022-12-07T04:17:53;2.80;99.90
15900;DHT22;8048;50.644;6.184;2022-12-07T04:20:20;2.80;99.90
15900;DHT22;8048;50.644;6.184;2022-12-07T04:22:46;2.80;99.90
15900;DHT22;8048;50.644;6.184;2022-12-07T04:25:11;2.80;99.90
15900;DHT22;8048;50.644;6.184;2022-12-07T04:27:37;2.80;99.90
15900;DHT22;8048;50.644;6.184;2022-12-07T04:30:03;2.80;99.90
15900;DHT22;8048;50.644;6.184;2022-12-07T04:32:29;2.80;99.90
15900;DHT22;8048;50.644;6.184;2022-12-07T04:34:54;2.80;99.90
15900;DHT22;8048;50.644;6.184;2022-12-07T04:37:20;2.80;99.90
15900;DHT22;8048;50.644;6.184;2022-12-07T04:39:45;2.80;99.90
15900;DHT22;8048;50.644;6.184;2022-12-07T04:42:11;2.70;99.90
15900;DHT22;8048;50.644;6.184;2022-12-07T04:44:38;2.80;99.90
15900;DHT22;8048;50.644;6.184;2022-12-07T04:47:04;2.70;99.90
15900;DHT22;8048;50.644;6.184;2022-12-07T04:49:29;2.70;99.90
15900;DHT22;8048;50.644;6.184;2022-12-07T04:51:55;2.80;99.90
15900;DHT22;8048;50.644;6.184;2022-12-07T04:54:21;2.80;99.90
15900;DHT22;8048;50.644;6.184;2022-12-07T04:56:46;2.80;99.90
15900;DHT22;8048;50.644;6.184;2022-12-07T04:59:13;2.80;99.90
15900;DHT22;8048;50.644;6.184;2022-12-07T05:01:39;2.80;99.90
15900;DHT22;8048;50.644;6.184;2022-12-07T05:04:04;2.80;99.90
15900;DHT22;8048;50.644;6.184;2022-12-07T05:06:30;2.80;99.90
15900;DHT22;8048;50.644;6.184;2022-12-07T05:08:56;2.90;99.90
15900;DHT22;8048;50.644;6.184;2022-12-07T05:11:22;2.80;99.90
15900;DHT22;8048;50.644;6.184;2022-12-07T05:14:07;2.90;99.90
15900;DHT22;8048;50.644;6.184;2022-12-07T05:16:33;2.90;99.90
15900;DHT22;8048;50.644;6.184;2022-12-07T05:18:59;2.90;99.90
15900;DHT22;8048;50.644;6.184;2022-12-07T05:21:25;2.90;99.90
15900;DHT22;8048;50.644;6.184;2022-12-07T05:23:51;2.90;99.90
15900;DHT22;8048;50.644;6.184;2022-12-07T05:26:17;2.90;99.90
15900;DHT22;8048;50.644;6.184;2022-12-07T05:28:42;2.80;99.90
15900;DHT22;8048;50.644;6.184;2022-12-07T05:31:08;2.90;99.90
15900;DHT22;8048;50.644;6.184;2022-12-07T05:33:34;2.90;99.90
15900;DHT22;8048;50.644;6.184;2022-12-07T05:35:59;2.90;99.90
15900;DHT22;8048;50.644;6.184;2022-12-07T05:38:31;2.90;99.90
15900;DHT22;8048;50.644;6.184;2022-12-07T05:41:00;2.90;99.90
15900;DHT22;8048;50.644;6.184;2022-12-07T05:43:27;2.90;99.90
15900;DHT22;8048;50.644;6.184;2022-12-07T05:45:52;2.90;99.90
15900;DHT22;8048;50.644;6.184;2022-12-07T05:48:18;2.90;99.90
15900;DHT22;8048;50.644;6.184;2022-12-07T05:50:43;2.90;99.90
15900;DHT22;8048;50.644;6.184;2022-12-07T05:53:09;2.80;99.90
15900;DHT22;8048;50.644;6.184;2022-12-07T05:55:34;2.80;99.90
15900;DHT22;8048;50.644;6.184;2022-12-07T05:58:00;2.80;99.90
15900;DHT22;8048;50.644;6.184;2022-12-07T06:00:44;2.80;99.90
15900;DHT22;8048;50.644;6.184;2022-12-07T06:03:09;2.90;99.90
15900;DHT22;8048;50.644;6.184;2022-12-07T06:05:35;2.90;99.90
15900;DHT22;8048;50.644;6.184;2022-12-07T06:08:00;2.90;99.90
15900;DHT22;8048;50.644;6.184;2022-12-07T06:10:26;2.80;99.90
15900;DHT22;8048;50.644;6.184;2022-12-07T06:12:51;2.80;99.90
15900;DHT22;8048;50.644;6.184;2022-12-07T06:15:17;2.80;99.90
15900;DHT22;8048;50.644;6.184;2022-12-07T06:17:42;2.80;99.90
15900;DHT22;8048;50.644;6.184;2022-12-07T06:20:08;2.80;99.90
15900;DHT22;8048;50.644;6.184;2022-12-07T06:22:33;2.70;99.90
15900;DHT22;8048;50.644;6.184;2022-12-07T06:24:59;2.70;99.90
15900;DHT22;8048;50.644;6.184;2022-12-07T06:27:24;2.70;99.90
15900;DHT22;8048;50.644;6.184;2022-12-07T06:29:50;2.70;99.90
15900;DHT22;8048;50.644;6.184;2022-12-07T06:32:15;2.70;99.90
15900;DHT22;8048;50.644;6.184;2022-12-07T06:34:41;2.80;99.90
15900;DHT22;8048;50.644;6.184;2022-12-07T06:37:07;2.80;99.90
15900;DHT22;8048;50.644;6.184;2022-12-07T06:39:32;2.80;99.90
15900;DHT22;8048;50.644;6.184;2022-12-07T06:41:58;2.70;99.90
15900;DHT22;8048;50.644;6.184;2022-12-07T06:44:24;2.70;99.90
15900;DHT22;8048;50.644;6.184;2022-12-07T06:46:51;2.70;99.90
15900;DHT22;8048;50.644;6.184;2022-12-07T06:49:17;2.80;99.90
15900;DHT22;8048;50.644;6.184;2022-12-07T06:51:43;2.80;99.90
15900;DHT22;8048;50.644;6.184;2022-12-07T06:54:12;2.80;99.90
15900;DHT22;8048;50.644;6.184;2022-12-07T06:56:38;2.80;99.90
15900;DHT22;8048;50.644;6.184;2022-12-07T06:59:05;2.70;99.90
15900;DHT22;8048;50.644;6.184;2022-12-07T07:01:32;2.70;99.90
15900;DHT22;8048;50.644;6.184;2022-12-07T07:03:58;2.70;99.90
15900;DHT22;8048;50.644;6.184;2022-12-07T07:06:24;2.80;99.90
15900;DHT22;8048;50.644;6.184;2022-12-07T07:08:49;2.80;99.90
15900;DHT22;8048;50.644;6.184;2022-12-07T07:11:15;2.80;99.90
15900;DHT22;8048;50.644;6.184;2022-12-07T07:13:40;2.70;99.90
15900;DHT22;8048;50.644;6.184;2022-12-07T07:16:06;2.70;99.90
15900;DHT22;8048;50.644;6.184;2022-12-07T07:18:32;2.70;99.90
15900;DHT22;8048;50.644;6.184;2022-12-07T07:20:58;2.80;99.90
15900;DHT22;8048;50.644;6.184;2022-12-07T07:23:24;2.80;99.90
15900;DHT22;8048;50.644;6.184;2022-12-07T07:25:49;2.80;99.90
15900;DHT22;8048;50.644;6.184;2022-12-07T07:28:16;2.80;99.90
15900;DHT22;8048;50.644;6.184;2022-12-07T07:30:41;2.90;99.90
15900;DHT22;8048;50.644;6.184;2022-12-07T07:33:07;2.80;99.90
15900;DHT22;8048;50.644;6.184;2022-12-07T07:35:33;2.70;99.90
15900;DHT22;8048;50.644;6.184;2022-12-07T07:37:59;2.80;99.90
15900;DHT22;8048;50.644;6.184;2022-12-07T07:40:25;2.80;99.90
15900;DHT22;8048;50.644;6.184;2022-12-07T07:42:51;2.90;99.90
15900;DHT22;8048;50.644;6.184;2022-12-07T07:45:18;2.90;99.90
15900;DHT22;8048;50.644;6.184;2022-12-07T07:47:44;2.80;99.90
15900;DHT22;8048;50.644;6.184;2022-12-07T07:50:09;2.80;99.90
15900;DHT22;8048;50.644;6.184;2022-12-07T07:52:35;2.80;99.90
15900;DHT22;8048;50.644;6.184;2022-12-07T07:55:01;2.80;99.90
15900;DHT22;8048;50.644;6.184;2022-12-07T07:57:26;2.90;99.90
15900;DHT22;8048;50.644;6.184;2022-12-07T07:59:52;2.90;99.90
15900;DHT22;8048;50.644;6.184;2022-12-07T08:02:19;2.90;99.90
15900;DHT22;8048;50.644;6.184;2022-12-07T08:04:45;2.90;99.90
15900;DHT22;8048;50.644;6.184;2022-12-07T08:07:12;3.00;99.90
15900;DHT22;8048;50.644;6.184;2022-12-07T08:09:38;2.90;99.90
15900;DHT22;8048;50.644;6.184;2022-12-07T08:12:04;2.90;99.90
15900;DHT22;8048;50.644;6.184;2022-12-07T08:14:30;2.80;99.90
15900;DHT22;8048;50.644;6.184;2022-12-07T08:16:55;2.80;99.90
15900;DHT22;8048;50.644;6.184;2022-12-07T08:19:21;2.80;99.90
15900;DHT22;8048;50.644;6.184;2022-12-07T08:21:47;2.80;99.90
15900;DHT22;8048;50.644;6.184;2022-12-07T08:24:13;2.80;99.90
15900;DHT22;8048;50.644;6.184;2022-12-07T08:26:38;2.70;99.90
15900;DHT22;8048;50.644;6.184;2022-12-07T08:29:04;2.80;99.90
15900;DHT22;8048;50.644;6.184;2022-12-07T08:31:29;2.80;99.90
15900;DHT22;8048;50.644;6.184;2022-12-07T08:33:55;2.80;99.90
15900;DHT22;8048;50.644;6.184;2022-12-07T08:36:21;2.80;99.90
15900;DHT22;8048;50.644;6.184;2022-12-07T08:38:48;2.80;99.90
15900;DHT22;8048;50.644;6.184;2022-12-07T08:41:14;2.90;99.90
15900;DHT22;8048;50.644;6.184;2022-12-07T08:43:39;2.80;99.90
15900;DHT22;8048;50.644;6.184;2022-12-07T08:46:18;2.80;99.90
15900;DHT22;8048;50.644;6.184;2022-12-07T08:48:49;2.80;99.90
15900;DHT22;8048;50.644;6.184;2022-12-07T08:51:16;2.80;99.90
15900;DHT22;8048;50.644;6.184;2022-12-07T08:53:42;2.80;99.90
15900;DHT22;8048;50.644;6.184;2022-12-07T08:56:09;2.90;99.90
15900;DHT22;8048;50.644;6.184;2022-12-07T08:58:35;3.00;99.90
15900;DHT22;8048;50.644;6.184;2022-12-07T09:01:02;3.00;99.90
15900;DHT22;8048;50.644;6.184;2022-12-07T09:03:28;3.10;99.90
15900;DHT22;8048;50.644;6.184;2022-12-07T09:05:54;3.10;99.90
15900;DHT22;8048;50.644;6.184;2022-12-07T09:08:21;3.10;99.90
15900;DHT22;8048;50.644;6.184;2022-12-07T09:10:47;3.10;99.90
15900;DHT22;8048;50.644;6.184;2022-12-07T09:13:13;3.20;99.90
15900;DHT22;8048;50.644;6.184;2022-12-07T09:15:39;3.20;99.90
15900;DHT22;8048;50.644;6.184;2022-12-07T09:18:04;3.20;99.90
15900;DHT22;8048;50.644;6.184;2022-12-07T09:20:30;3.20;99.90
15900;DHT22;8048;50.644;6.184;2022-12-07T09:22:55;3.10;99.90
15900;DHT22;8048;50.644;6.184;2022-12-07T09:25:21;3.10;99.90
15900;DHT22;8048;50.644;6.184;2022-12-07T09:27:47;3.10;99.90
15900;DHT22;8048;50.644;6.184;2022-12-07T09:30:13;3.10;99.90
15900;DHT22;8048;50.644;6.184;2022-12-07T09:32:38;3.30;99.90
15900;DHT22;8048;50.644;6.184;2022-12-07T09:35:04;3.40;99.90
15900;DHT22;8048;50.644;6.184;2022-12-07T09:37:30;3.50;99.90
15900;DHT22;8048;50.644;6.184;2022-12-07T09:40:00;3.60;99.90
15900;DHT22;8048;50.644;6.184;2022-12-07T09:42:34;3.60;99.90
15900;DHT22;8048;50.644;6.184;2022-12-07T09:45:01;3.60;99.90
15900;DHT22;8048;50.644;6.184;2022-12-07T09:47:27;3.60;99.90
15900;DHT22;8048;50.644;6.184;2022-12-07T09:49:58;3.50;99.90
15900;DHT22;8048;50.644;6.184;2022-12-07T09:52:28;3.50;99.90
15900;DHT22;8048;50.644;6.184;2022-12-07T09:54:54;3.50;99.90
15900;DHT22;8048;50.644;6.184;2022-12-07T09:57:32;3.60;99.90
15900;DHT22;8048;50.644;6.184;2022-12-07T10:00:03;3.60;99.90
15900;DHT22;8048;50.644;6.184;2022-12-07T10:05:16;3.50;99.90
15900;DHT22;8048;50.644;6.184;2022-12-07T10:07:43;3.50;99.90
15900;DHT22;8048;50.644;6.184;2022-12-07T10:10:17;3.50;99.90
15900;DHT22;8048;50.644;6.184;2022-12-07T10:18:37;3.60;99.90
15900;DHT22;8048;50.644;6.184;2022-12-07T10:21:12;3.50;99.90
15900;DHT22;8048;50.644;6.184;2022-12-07T10:24:01;3.50;99.90
15900;DHT22;8048;50.644;6.184;2022-12-07T10:26:33;3.50;99.90
15900;DHT22;8048;50.644;6.184;2022-12-07T10:31:39;3.60;99.90
15900;DHT22;8048;50.644;6.184;2022-12-07T10:34:36;3.60;99.90
15900;DHT22;8048;50.644;6.184;2022-12-07T10:37:27;3.60;99.90
15900;DHT22;8048;50.644;6.184;2022-12-07T10:39:57;3.60;99.90
15900;DHT22;8048;50.644;6.184;2022-12-07T10:42:31;3.60;99.90
15900;DHT22;8048;50.644;6.184;2022-12-07T10:45:17;3.60;99.90
15900;DHT22;8048;50.644;6.184;2022-12-07T10:48:06;3.60;99.90
15900;DHT22;8048;50.644;6.184;2022-12-07T10:53:39;3.70;99.90
15900;DHT22;8048;50.644;6.184;2022-12-07T10:59:17;3.60;99.90
15900;DHT22;8048;50.644;6.184;2022-12-07T11:01:54;3.60;99.90
15900;DHT22;8048;50.644;6.184;2022-12-07T11:05:05;3.60;99.90
15900;DHT22;8048;50.644;6.184;2022-12-07T11:15:42;3.70;99.90
15900;DHT22;8048;50.644;6.184;2022-12-07T11:18:27;3.60;99.90
15900;DHT22;8048;50.644;6.184;2022-12-07T11:24:16;3.80;99.90
15900;DHT22;8048;50.644;6.184;2022-12-07T11:29:45;3.70;99.90
15900;DHT22;8048;50.644;6.184;2022-12-07T11:32:34;3.60;99.90
15900;DHT22;8048;50.644;6.184;2022-12-07T11:35:22;3.60;99.90
15900;DHT22;8048;50.644;6.184;2022-12-07T11:37:51;3.60;99.90
15900;DHT22;8048;50.644;6.184;2022-12-07T11:40:33;3.60;99.90
15900;DHT22;8048;50.644;6.184;2022-12-07T11:43:27;3.60;99.90
15900;DHT22;8048;50.644;6.184;2022-12-07T11:46:02;3.60;99.90
15900;DHT22;8048;50.644;6.184;2022-12-07T11:48:34;3.60;99.90
15900;DHT22;8048;50.644;6.184;2022-12-07T11:51:02;3.70;99.90
15900;DHT22;8048;50.644;6.184;2022-12-07T11:53:35;3.70;99.90
15900;DHT22;8048;50.644;6.184;2022-12-07T11:56:13;3.80;99.90
15900;DHT22;8048;50.644;6.184;2022-12-07T12:06:37;4.00;99.90
15900;DHT22;8048;50.644;6.184;2022-12-07T12:09:15;3.90;99.90
15900;DHT22;8048;50.644;6.184;2022-12-07T12:11:48;3.90;99.90
15900;DHT22;8048;50.644;6.184;2022-12-07T12:14:38;3.90;99.90
15900;DHT22;8048;50.644;6.184;2022-12-07T12:17:39;4.00;99.90
15900;DHT22;8048;50.644;6.184;2022-12-07T12:20:21;4.00;99.90
15900;DHT22;8048;50.644;6.184;2022-12-07T12:23:05;4.00;99.90
15900;DHT22;8048;50.644;6.184;2022-12-07T12:25:44;4.00;99.90
15900;DHT22;8048;50.644;6.184;2022-12-07T12:33:51;3.90;99.90
15900;DHT22;8048;50.644;6.184;2022-12-07T12:44:01;4.00;99.90
15900;DHT22;8048;50.644;6.184;2022-12-07T12:59:35;3.90;99.90
15900;DHT22;8048;50.644;6.184;2022-12-07T13:02:24;4.00;99.90
15900;DHT22;8048;50.644;6.184;2022-12-07T13:20:56;4.00;99.90
15900;DHT22;8048;50.644;6.184;2022-12-07T13:23:52;4.00;99.90
15900;DHT22;8048;50.644;6.184;2022-12-07T13:29:06;4.00;99.90
15900;DHT22;8048;50.644;6.184;2022-12-07T13:31:39;4.00;99.90
15900;DHT22;8048;50.644;6.184;2022-12-07T13:36:45;4.10;99.90
15900;DHT22;8048;50.644;6.184;2022-12-07T13:39:18;4.00;99.90
15900;DHT22;8048;50.644;6.184;2022-12-07T13:41:46;4.00;99.90
15900;DHT22;8048;50.644;6.184;2022-12-07T13:44:15;3.90;99.90
15900;DHT22;8048;50.644;6.184;2022-12-07T13:46:49;3.90;99.90
15900;DHT22;8048;50.644;6.184;2022-12-07T13:49:25;3.90;99.90
15900;DHT22;8048;50.644;6.184;2022-12-07T13:51:52;3.90;99.90
15900;DHT22;8048;50.644;6.184;2022-12-07T13:54:18;3.90;99.90
15900;DHT22;8048;50.644;6.184;2022-12-07T13:56:48;3.90;99.90
15900;DHT22;8048;50.644;6.184;2022-12-07T13:59:23;3.90;99.90
15900;DHT22;8048;50.644;6.184;2022-12-07T14:01:51;3.90;99.90
15900;DHT22;8048;50.644;6.184;2022-12-07T14:04:33;3.90;99.90
15900;DHT22;8048;50.644;6.184;2022-12-07T14:07:01;3.90;99.90
15900;DHT22;8048;50.644;6.184;2022-12-07T14:09:28;3.80;99.90
15900;DHT22;8048;50.644;6.184;2022-12-07T14:11:56;3.80;99.90
15900;DHT22;8048;50.644;6.184;2022-12-07T14:14:25;3.80;99.90
15900;DHT22;8048;50.644;6.184;2022-12-07T14:17:00;3.80;99.90
15900;DHT22;8048;50.644;6.184;2022-12-07T14:19:52;3.80;99.90
15900;DHT22;8048;50.644;6.184;2022-12-07T14:27:34;3.80;99.90
15900;DHT22;8048;50.644;6.184;2022-12-07T14:30:01;3.80;99.90
15900;DHT22;8048;50.644;6.184;2022-12-07T14:32:28;3.70;99.90
15900;DHT22;8048;50.644;6.184;2022-12-07T14:35:11;3.70;99.90
15900;DHT22;8048;50.644;6.184;2022-12-07T14:37:39;3.70;99.90
15900;DHT22;8048;50.644;6.184;2022-12-07T14:40:06;3.60;99.90
15900;DHT22;8048;50.644;6.184;2022-12-07T14:42:33;3.70;99.90
15900;DHT22;8048;50.644;6.184;2022-12-07T14:44:59;3.70;99.90
15900;DHT22;8048;50.644;6.184;2022-12-07T14:47:26;3.70;99.90
15900;DHT22;8048;50.644;6.184;2022-12-07T14:49:52;3.70;99.90
15900;DHT22;8048;50.644;6.184;2022-12-07T14:52:20;3.60;99.90
15900;DHT22;8048;50.644;6.184;2022-12-07T14:54:46;3.60;99.90
15900;DHT22;8048;50.644;6.184;2022-12-07T14:57:12;3.60;99.90
15900;DHT22;8048;50.644;6.184;2022-12-07T14:59:37;3.60;99.90
15900;DHT22;8048;50.644;6.184;2022-12-07T15:02:04;3.60;99.90
15900;DHT22;8048;50.644;6.184;2022-12-07T15:04:29;3.60;99.90
15900;DHT22;8048;50.644;6.184;2022-12-07T15:07:00;3.60;99.90
15900;DHT22;8048;50.644;6.184;2022-12-07T15:09:26;3.50;99.90
15900;DHT22;8048;50.644;6.184;2022-12-07T15:11:51;3.50;99.90
15900;DHT22;8048;50.644;6.184;2022-12-07T15:14:17;3.50;99.90
15900;DHT22;8048;50.644;6.184;2022-12-07T15:16:43;3.50;99.90
15900;DHT22;8048;50.644;6.184;2022-12-07T15:19:19;3.50;99.90
15900;DHT22;8048;50.644;6.184;2022-12-07T15:21:48;3.50;99.90
15900;DHT22;8048;50.644;6.184;2022-12-07T15:24:14;3.50;99.90
15900;DHT22;8048;50.644;6.184;2022-12-07T15:26:40;3.50;99.90
15900;DHT22;8048;50.644;6.184;2022-12-07T15:29:06;3.50;99.90
15900;DHT22;8048;50.644;6.184;2022-12-07T15:31:32;3.50;99.90
15900;DHT22;8048;50.644;6.184;2022-12-07T15:33:58;3.50;99.90
15900;DHT22;8048;50.644;6.184;2022-12-07T15:36:26;3.50;99.90
15900;DHT22;8048;50.644;6.184;2022-12-07T15:38:52;3.50;99.90
15900;DHT22;8048;50.644;6.184;2022-12-07T15:41:18;3.50;99.90
15900;DHT22;8048;50.644;6.184;2022-12-07T15:43:44;3.50;99.90
15900;DHT22;8048;50.644;6.184;2022-12-07T15:46:30;3.50;99.90
15900;DHT22;8048;50.644;6.184;2022-12-07T15:48:56;3.50;99.90
15900;DHT22;8048;50.644;6.184;2022-12-07T15:51:21;3.50;99.90
15900;DHT22;8048;50.644;6.184;2022-12-07T15:53:47;3.60;99.90
15900;DHT22;8048;50.644;6.184;2022-12-07T15:56:12;3.50;99.90
15900;DHT22;8048;50.644;6.184;2022-12-07T15:58:38;3.50;99.90
15900;DHT22;8048;50.644;6.184;2022-12-07T16:01:14;3.50;99.90
15900;DHT22;8048;50.644;6.184;2022-12-07T16:03:40;3.50;99.90
15900;DHT22;8048;50.644;6.184;2022-12-07T16:06:06;3.40;99.90
15900;DHT22;8048;50.644;6.184;2022-12-07T16:08:32;3.40;99.90
15900;DHT22;8048;50.644;6.184;2022-12-07T16:10:57;3.40;99.90
15900;DHT22;8048;50.644;6.184;2022-12-07T16:13:23;3.30;99.90
15900;DHT22;8048;50.644;6.184;2022-12-07T16:15:48;3.30;99.90
15900;DHT22;8048;50.644;6.184;2022-12-07T16:18:14;3.30;99.90
15900;DHT22;8048;50.644;6.184;2022-12-07T16:20:40;3.30;99.90
15900;DHT22;8048;50.644;6.184;2022-12-07T16:23:06;3.30;99.90
15900;DHT22;8048;50.644;6.184;2022-12-07T16:25:32;3.30;99.90
15900;DHT22;8048;50.644;6.184;2022-12-07T16:27:58;3.30;99.90
15900;DHT22;8048;50.644;6.184;2022-12-07T16:30:24;3.30;99.90
15900;DHT22;8048;50.644;6.184;2022-12-07T16:32:50;3.30;99.90
15900;DHT22;8048;50.644;6.184;2022-12-07T16:35:16;3.20;99.90
15900;DHT22;8048;50.644;6.184;2022-12-07T16:37:42;3.20;99.90
15900;DHT22;8048;50.644;6.184;2022-12-07T16:40:08;3.30;99.90
15900;DHT22;8048;50.644;6.184;2022-12-07T16:42:35;3.30;99.90
15900;DHT22;8048;50.644;6.184;2022-12-07T16:45:01;3.30;99.90
15900;DHT22;8048;50.644;6.184;2022-12-07T16:47:27;3.30;99.90
15900;DHT22;8048;50.644;6.184;2022-12-07T16:49:52;3.30;99.90
15900;DHT22;8048;50.644;6.184;2022-12-07T16:52:19;3.30;99.90
15900;DHT22;8048;50.644;6.184;2022-12-07T16:54:45;3.20;99.90
15900;DHT22;8048;50.644;6.184;2022-12-07T16:57:11;3.20;99.90
15900;DHT22;8048;50.644;6.184;2022-12-07T16:59:36;3.20;99.90
15900;DHT22;8048;50.644;6.184;2022-12-07T17:02:02;3.20;99.90
15900;DHT22;8048;50.644;6.184;2022-12-07T17:04:28;3.20;99.90
15900;DHT22;8048;50.644;6.184;2022-12-07T17:06:54;3.30;99.90
15900;DHT22;8048;50.644;6.184;2022-12-07T17:09:19;3.20;99.90
15900;DHT22;8048;50.644;6.184;2022-12-07T17:11:45;3.30;99.90
15900;DHT22;8048;50.644;6.184;2022-12-07T17:14:11;3.30;99.90
15900;DHT22;8048;50.644;6.184;2022-12-07T17:16:55;3.20;99.90
15900;DHT22;8048;50.644;6.184;2022-12-07T17:19:21;3.20;99.90
15900;DHT22;8048;50.644;6.184;2022-12-07T17:21:47;3.20;99.90
15900;DHT22;8048;50.644;6.184;2022-12-07T17:24:15;3.20;99.90
15900;DHT22;8048;50.644;6.184;2022-12-07T17:26:42;3.20;99.90
15900;DHT22;8048;50.644;6.184;2022-12-07T17:29:11;3.20;99.90
15900;DHT22;8048;50.644;6.184;2022-12-07T17:31:37;3.20;99.90
15900;DHT22;8048;50.644;6.184;2022-12-07T17:34:03;3.20;99.90
15900;DHT22;8048;50.644;6.184;2022-12-07T17:36:31;3.20;99.90
15900;DHT22;8048;50.644;6.184;2022-12-07T17:38:57;3.30;99.90
15900;DHT22;8048;50.644;6.184;2022-12-07T17:41:27;3.20;99.90
15900;DHT22;8048;50.644;6.184;2022-12-07T17:44:17;3.20;99.90
15900;DHT22;8048;50.644;6.184;2022-12-07T17:46:44;3.10;99.90
15900;DHT22;8048;50.644;6.184;2022-12-07T17:49:10;3.20;99.90
15900;DHT22;8048;50.644;6.184;2022-12-07T17:51:36;3.30;99.90
15900;DHT22;8048;50.644;6.184;2022-12-07T17:54:20;3.20;99.90
15900;DHT22;8048;50.644;6.184;2022-12-07T17:56:47;3.20;99.90
15900;DHT22;8048;50.644;6.184;2022-12-07T17:59:13;3.20;99.90
15900;DHT22;8048;50.644;6.184;2022-12-07T18:01:39;3.20;99.90
15900;DHT22;8048;50.644;6.184;2022-12-07T18:04:05;3.20;99.90
15900;DHT22;8048;50.644;6.184;2022-12-07T18:06:32;3.20;99.90
15900;DHT22;8048;50.644;6.184;2022-12-07T18:08:58;3.20;99.90
15900;DHT22;8048;50.644;6.184;2022-12-07T18:11:24;3.20;99.90
15900;DHT22;8048;50.644;6.184;2022-12-07T18:13:50;3.20;99.90
15900;DHT22;8048;50.644;6.184;2022-12-07T18:16:18;3.20;99.90
15900;DHT22;8048;50.644;6.184;2022-12-07T18:18:46;3.30;99.90
15900;DHT22;8048;50.644;6.184;2022-12-07T18:21:17;3.20;99.90